Time;durP1;ratioP1;P1;durP2;ratioP2;P2;SDS_P1;SDS_P2;PMS_P1;PMS_P2;Temp;Humidity;BMP_temperature;BMP_pressure;BME280_temperature;BME280_humidity;BME280_pressure;Samples;Min_cycle;Max_cycle;Signal;HPM_P1;HPM_P2
2022/04/27 00:02:01;;;;;;;2.40;1.70;;;;;;;;;;4480624;28;20039;-66
2022/04/27 00:04:12;;;;;;;3.10;1.80;;;;;;;;;;4457906;28;20776;-65
2022/04/27 00:06:22;;;;;;;2.57;1.73;;;;;;;;;;4456961;28;20067;-66
2022/04/27 00:08:33;;;;;;;3.07;1.67;;;;;;;;;;4463335;28;20126;-66
2022/04/27 00:10:43;;;;;;;2.60;1.50;;;;;;;;;;4481149;28;20030;-66
2022/04/27 00:12:53;;;;;;;2.87;1.50;;;;;;;;;;4481288;28;20029;-66
2022/04/27 00:15:06;;;;;;;1.90;1.60;;;;;;;;;;4467612;28;20795;-66
2022/04/27 00:17:16;;;;;;;1.90;1.40;;;;;;;;;;4463846;28;20133;-66
2022/04/27 00:19:27;;;;;;;2.70;1.77;;;;;;;;;;4465633;28;25026;-66
2022/04/27 00:21:37;;;;;;;2.33;1.50;;;;;;;;;;4482079;28;20023;-66
2022/04/27 00:23:48;;;;;;;2.57;1.70;;;;;;;;;;4458323;28;20024;-67
2022/04/27 00:25:59;;;;;;;3.13;1.70;;;;;;;;;;4458286;28;20101;-66
2022/04/27 00:28:09;;;;;;;2.20;1.50;;;;;;;;;;4482225;28;20026;-66
2022/04/27 00:30:19;;;;;;;2.23;1.50;;;;;;;;;;4482332;28;20037;-68
2022/04/27 00:32:30;;;;;;;2.60;1.77;;;;;;;;;;4463837;28;20118;-66
2022/04/27 00:34:40;;;;;;;3.00;1.70;;;;;;;;;;4448551;28;20779;-66
2022/04/27 00:36:51;;;;;;;1.67;1.30;;;;;;;;;;4481629;28;20030;-66
2022/04/27 00:39:02;;;;;;;2.60;1.90;;;;;;;;;;4463524;28;20023;-66
2022/04/27 00:41:13;;;;;;;3.72;2.00;;;;;;;;;;4465671;28;20023;-66
2022/04/27 00:43:42;;;;;;;3.30;1.70;;;;;;;;;;4481721;28;20574;-66
2022/04/27 00:45:52;;;;;;;3.22;1.75;;;;;;;;;;4464209;28;20578;-66
2022/04/27 00:48:03;;;;;;;2.00;1.50;;;;;;;;;;4464069;28;20023;-66
2022/04/27 00:50:13;;;;;;;3.40;1.80;;;;;;;;;;4481321;28;20026;-66
2022/04/27 00:52:24;;;;;;;2.60;1.50;;;;;;;;;;4449129;28;20035;-66
2022/04/27 00:54:35;;;;;;;2.17;1.73;;;;;;;;;;4447585;28;20023;-66
2022/04/27 00:56:45;;;;;;;2.17;1.63;;;;;;;;;;4464058;28;20102;-65
2022/04/27 00:58:56;;;;;;;1.60;1.30;;;;;;;;;;4480868;28;20046;-66
2022/04/27 01:01:06;;;;;;;1.93;1.50;;;;;;;;;;4480709;28;20027;-66
2022/04/27 01:03:17;;;;;;;2.33;1.60;;;;;;;;;;4480570;28;20022;-65
2022/04/27 01:05:28;;;;;;;2.72;1.60;;;;;;;;;;4480832;28;20079;-66
2022/04/27 01:07:40;;;;;;;2.03;1.80;;;;;;;;;;4481711;28;20023;-66
2022/04/27 01:09:51;;;;;;;2.75;1.60;;;;;;;;;;4462622;28;20031;-66
2022/04/27 01:12:01;;;;;;;2.40;1.53;;;;;;;;;;4456500;28;20765;-66
2022/04/27 01:14:13;;;;;;;3.22;1.83;;;;;;;;;;4462566;28;20023;-65
2022/04/27 01:16:24;;;;;;;3.00;1.93;;;;;;;;;;4465124;28;20027;-66
2022/04/27 01:18:34;;;;;;;3.80;2.07;;;;;;;;;;4462671;28;20642;-66
2022/04/27 01:20:45;;;;;;;2.20;1.70;;;;;;;;;;4462333;28;20035;-66
2022/04/27 01:22:58;;;;;;;2.55;1.80;;;;;;;;;;4463648;28;20388;-66
2022/04/27 01:25:08;;;;;;;3.35;1.70;;;;;;;;;;4462416;28;20035;-66
2022/04/27 01:27:19;;;;;;;2.50;2.05;;;;;;;;;;4480356;28;20554;-66
2022/04/27 01:29:30;;;;;;;2.43;1.70;;;;;;;;;;4462637;28;20027;-66
2022/04/27 01:31:40;;;;;;;2.17;1.60;;;;;;;;;;4479804;28;20026;-66
2022/04/27 01:33:51;;;;;;;1.90;1.50;;;;;;;;;;4462822;28;20546;-66
2022/04/27 01:36:05;;;;;;;2.50;1.63;;;;;;;;;;4464347;28;20543;-66
2022/04/27 01:38:18;;;;;;;2.58;1.67;;;;;;;;;;4462090;28;20034;-66
2022/04/27 01:40:29;;;;;;;2.58;1.50;;;;;;;;;;4462645;28;20069;-66
2022/04/27 01:42:40;;;;;;;2.05;1.60;;;;;;;;;;4463332;28;20630;-66
2022/04/27 01:44:51;;;;;;;2.50;1.63;;;;;;;;;;4462103;28;20859;-66
2022/04/27 01:47:01;;;;;;;3.03;1.63;;;;;;;;;;4462031;28;20081;-66
2022/04/27 01:49:13;;;;;;;2.00;1.73;;;;;;;;;;4479699;28;20033;-66
2022/04/27 01:56:24;;;;;;;3.33;1.90;;;;;;;;;;4479807;28;20475;-66
2022/04/27 01:58:37;;;;;;;3.47;2.08;;;;;;;;;;4462064;28;20030;-66
2022/04/27 02:00:47;;;;;;;3.27;1.90;;;;;;;;;;4480360;28;20428;-66
2022/04/27 02:02:59;;;;;;;2.80;2.00;;;;;;;;;;4479728;28;20042;-66
2022/04/27 02:05:09;;;;;;;2.42;1.65;;;;;;;;;;4447836;28;20255;-66
2022/04/27 02:07:20;;;;;;;3.80;2.00;;;;;;;;;;4480319;28;20054;-65
2022/04/27 02:09:31;;;;;;;;;;;;;;;;;;4452151;28;20599;-65
2022/04/27 02:11:42;;;;;;;3.63;1.67;;;;;;;;;;4455592;28;19932;-66
2022/04/27 02:13:55;;;;;;;2.83;1.67;;;;;;;;;;4480770;28;20038;-66
2022/04/27 02:16:06;;;;;;;2.47;1.90;;;;;;;;;;4446133;28;20074;-66
2022/04/27 02:18:19;;;;;;;2.70;1.90;;;;;;;;;;4462379;28;20034;-66
2022/04/27 02:20:30;;;;;;;3.13;1.80;;;;;;;;;;4463386;28;20042;-66
2022/04/27 02:22:41;;;;;;;1.90;1.70;;;;;;;;;;4462131;28;20118;-66
2022/04/27 02:24:51;;;;;;;3.13;1.60;;;;;;;;;;4480143;28;20043;-66
2022/04/27 02:27:02;;;;;;;2.67;2.00;;;;;;;;;;4461773;28;20670;-65
2022/04/27 02:29:16;;;;;;;3.83;1.88;;;;;;;;;;4480297;28;20031;-66
2022/04/27 02:31:27;;;;;;;4.32;2.10;;;;;;;;;;4462085;28;20772;-66
2022/04/27 02:33:38;;;;;;;3.33;1.90;;;;;;;;;;4462050;28;20078;-65
2022/04/27 02:35:49;;;;;;;2.13;1.50;;;;;;;;;;4479451;28;20109;-66
2022/04/27 02:38:00;;;;;;;;;;;;;;;;;;4462334;28;20039;-65
2022/04/27 02:40:12;;;;;;;2.22;1.85;;;;;;;;;;4464425;28;20746;-66
2022/04/27 02:42:24;;;;;;;4.40;2.30;;;;;;;;;;4477841;28;20098;-66
2022/04/27 02:44:34;;;;;;;3.45;1.98;;;;;;;;;;4461715;28;20375;-65
2022/04/27 02:46:45;;;;;;;3.93;2.30;;;;;;;;;;4445672;28;20067;-65
2022/04/27 02:53:56;;;;;;;3.92;2.25;;;;;;;;;;4477797;28;20031;-65
2022/04/27 02:56:07;;;;;;;3.37;1.90;;;;;;;;;;4461695;28;20018;-65
2022/04/27 02:58:17;;;;;;;4.50;2.10;;;;;;;;;;4479657;28;20502;-65
2022/04/27 03:00:30;;;;;;;2.63;2.07;;;;;;;;;;4461943;28;20038;-66
2022/04/27 03:02:40;;;;;;;2.97;1.63;;;;;;;;;;4461477;28;20034;-65
2022/04/27 03:04:51;;;;;;;3.13;1.80;;;;;;;;;;4461533;28;20090;-65
2022/04/27 03:07:03;;;;;;;3.45;2.08;;;;;;;;;;4461443;28;20062;-65
2022/04/27 03:09:17;;;;;;;3.42;2.05;;;;;;;;;;4461774;28;20027;-66
2022/04/27 03:11:29;;;;;;;3.17;1.90;;;;;;;;;;4454935;28;20472;-66
2022/04/27 03:13:55;;;;;;;2.80;1.88;;;;;;;;;;4466724;28;20034;-65
2022/04/27 03:16:06;;;;;;;2.27;1.90;;;;;;;;;;4444617;28;30601;-66
2022/04/27 03:18:22;;;;;;;2.70;2.00;;;;;;;;;;4479734;28;20733;-65
2022/04/27 03:20:34;;;;;;;3.25;2.22;;;;;;;;;;4461804;28;20701;-66
2022/04/27 03:22:44;;;;;;;3.03;2.17;;;;;;;;;;4454584;28;20031;-66
2022/04/27 03:24:55;;;;;;;3.60;2.10;;;;;;;;;;4460727;28;20034;-66
2022/04/27 03:27:11;;;;;;;3.08;1.90;;;;;;;;;;4465683;28;20747;-66
2022/04/27 03:29:21;;;;;;;3.63;2.30;;;;;;;;;;4461169;28;20240;-66
2022/04/27 03:31:38;;;;;;;3.35;2.38;;;;;;;;;;4447369;28;20595;-66
2022/04/27 03:33:48;;;;;;;2.70;1.67;;;;;;;;;;4462262;28;20039;-66
2022/04/27 03:35:58;;;;;;;3.73;2.40;;;;;;;;;;4460804;28;20110;-65
2022/04/27 03:38:11;;;;;;;3.65;2.50;;;;;;;;;;4460742;28;20037;-66
2022/04/27 03:40:24;;;;;;;3.43;2.50;;;;;;;;;;4479182;28;20087;-66
2022/04/27 03:42:35;;;;;;;3.28;2.30;;;;;;;;;;4461253;28;20834;-66
2022/04/27 03:44:46;;;;;;;3.45;2.17;;;;;;;;;;4478859;28;20023;-66
2022/04/27 03:46:57;;;;;;;4.20;2.33;;;;;;;;;;4478565;28;20031;-65
2022/04/27 03:49:09;;;;;;;3.30;2.03;;;;;;;;;;4460468;28;20034;-66
2022/04/27 03:51:19;;;;;;;3.23;1.80;;;;;;;;;;4478798;28;20033;-66
2022/04/27 03:53:32;;;;;;;2.30;1.90;;;;;;;;;;4444285;28;20027;-65
2022/04/27 03:55:43;;;;;;;2.83;2.10;;;;;;;;;;4478612;28;20030;-65
2022/04/27 03:57:53;;;;;;;2.83;1.93;;;;;;;;;;4460193;28;20023;-65
2022/04/27 04:00:06;;;;;;;2.60;1.70;;;;;;;;;;4460407;28;20113;-65
2022/04/27 04:02:23;;;;;;;2.55;1.73;;;;;;;;;;4454666;28;21323;-65
2022/04/27 04:04:34;;;;;;;3.58;2.10;;;;;;;;;;4454975;28;20774;-66
2022/04/27 04:06:45;;;;;;;3.10;1.83;;;;;;;;;;4460611;28;20105;-65
2022/04/27 04:08:56;;;;;;;2.00;1.67;;;;;;;;;;4478303;28;20883;-65
2022/04/27 04:11:07;;;;;;;2.00;1.70;;;;;;;;;;4461019;28;20109;-66
2022/04/27 04:13:36;;;;;;;2.17;1.77;;;;;;;;;;4478654;28;20113;-66
2022/04/27 04:16:02;;;;;;;2.85;1.98;;;;;;;;;;4446360;28;20106;-66
2022/04/27 04:18:24;;;;;;;2.47;1.90;;;;;;;;;;4477477;28;20077;-66
2022/04/27 04:20:46;;;;;;;;;;;;;;;;;;4479763;28;20126;-65
2022/04/27 04:23:16;;;;;;;3.35;2.13;;;;;;;;;;4452142;28;19914;-66
2022/04/27 04:30:29;;;;;;;2.95;2.00;;;;;;;;;;4476707;28;20102;-66
2022/04/27 04:32:59;;;;;;;2.65;1.80;;;;;;;;;;4460741;28;20054;-65
2022/04/27 04:35:17;;;;;;;3.40;2.20;;;;;;;;;;4464276;28;20106;-66
2022/04/27 04:37:27;;;;;;;3.80;2.40;;;;;;;;;;4457245;28;20680;-65
2022/04/27 04:39:38;;;;;;;4.25;2.03;;;;;;;;;;4463313;28;20073;-65
2022/04/27 04:41:49;;;;;;;2.73;2.00;;;;;;;;;;4462221;28;20038;-65
2022/04/27 04:44:00;;;;;;;3.40;1.87;;;;;;;;;;4461833;28;20240;-66
2022/04/27 04:46:13;;;;;;;3.75;2.10;;;;;;;;;;4461705;28;20058;-66
2022/04/27 04:48:50;;;;;;;2.67;2.10;;;;;;;;;;4476682;28;20037;-66
2022/04/27 04:51:16;;;;;;;3.33;2.35;;;;;;;;;;4464626;28;21171;-66
2022/04/27 04:53:35;;;;;;;2.65;2.03;;;;;;;;;;4479894;28;20030;-66
2022/04/27 04:56:04;;;;;;;2.28;2.08;;;;;;;;;;4480766;28;20497;-66
2022/04/27 04:58:37;;;;;;;5.28;2.45;;;;;;;;;;4451847;28;20089;-66
2022/04/27 05:01:03;;;;;;;3.25;2.42;;;;;;;;;;4450490;28;20115;-65
2022/04/27 05:03:38;;;;;;;4.00;2.60;;;;;;;;;;4477945;28;20166;-65
2022/04/27 05:05:51;;;;;;;3.90;2.20;;;;;;;;;;4480109;28;20061;-65
2022/04/27 05:08:22;;;;;;;3.47;2.30;;;;;;;;;;4479344;28;20045;-65
2022/04/27 05:11:05;;;;;;;4.13;2.10;;;;;;;;;;4445861;28;20065;-65
2022/04/27 05:13:24;;;;;;;4.30;2.38;;;;;;;;;;4447157;28;20053;-65
2022/04/27 05:15:43;;;;;;;4.15;2.30;;;;;;;;;;4461838;28;20983;-66
2022/04/27 05:18:23;;;;;;;4.10;2.38;;;;;;;;;;4417860;28;20047;-65
2022/04/27 05:20:57;;;;;;;4.32;2.25;;;;;;;;;;4461838;28;20042;-65
2022/04/27 05:23:28;;;;;;;3.83;2.60;;;;;;;;;;4478782;28;20066;-66
2022/04/27 05:26:08;;;;;;;4.05;2.60;;;;;;;;;;4415115;28;20119;-65
2022/04/27 05:28:24;;;;;;;4.03;2.40;;;;;;;;;;4462021;28;20034;-65
2022/04/27 05:33:23;;;;;;;4.30;2.65;;;;;;;;;;4477986;28;20145;-65
2022/04/27 05:35:54;;;;;;;;;;;;;;;;;;4451323;28;20771;-65
2022/04/27 05:38:16;;;;;;;2.88;2.20;;;;;;;;;;4449446;28;19918;-66
2022/04/27 05:40:29;;;;;;;5.22;2.63;;;;;;;;;;4481006;28;20680;-65
2022/04/27 05:42:54;;;;;;;3.70;2.35;;;;;;;;;;4462966;28;20029;-66
2022/04/27 05:45:21;;;;;;;5.53;2.65;;;;;;;;;;4462968;28;20613;-66
2022/04/27 05:47:49;;;;;;;3.90;2.45;;;;;;;;;;4480960;28;20034;-66
2022/04/27 05:50:19;;;;;;;3.72;2.38;;;;;;;;;;4464029;28;20027;-65
2022/04/27 05:52:56;;;;;;;2.90;2.22;;;;;;;;;;4421784;28;20039;-66
2022/04/27 05:55:23;;;;;;;3.92;2.20;;;;;;;;;;4450117;28;20150;-66
2022/04/27 05:57:53;;;;;;;3.15;2.10;;;;;;;;;;4459855;28;20046;-65
2022/04/27 06:00:19;;;;;;;5.45;2.63;;;;;;;;;;4463646;28;20084;-65
2022/04/27 06:02:38;;;;;;;3.97;2.20;;;;;;;;;;4452925;28;20031;-67
2022/04/27 06:04:48;;;;;;;3.38;2.30;;;;;;;;;;4481103;28;20077;-66
2022/04/27 06:06:59;;;;;;;2.40;2.00;;;;;;;;;;4463880;28;20130;-65
2022/04/27 06:09:09;;;;;;;5.37;2.17;;;;;;;;;;4446879;28;20035;-66
2022/04/27 06:11:38;;;;;;;3.90;2.30;;;;;;;;;;4453366;28;20849;-65
2022/04/27 06:14:07;;;;;;;4.22;2.38;;;;;;;;;;4480431;28;20030;-65
2022/04/27 06:16:27;;;;;;;5.15;2.38;;;;;;;;;;4478071;28;20034;-66
2022/04/27 06:18:47;;;;;;;4.25;2.60;;;;;;;;;;4462250;28;20037;-66
2022/04/27 06:20:59;;;;;;;4.03;2.42;;;;;;;;;;4446800;28;20082;-65
2022/04/27 06:23:09;;;;;;;3.10;2.20;;;;;;;;;;4456667;28;20075;-66
2022/04/27 06:25:20;;;;;;;3.20;2.30;;;;;;;;;;4462772;28;20051;-66
2022/04/27 06:27:46;;;;;;;3.97;2.40;;;;;;;;;;4462690;28;20049;-66
2022/04/27 06:29:57;;;;;;;4.07;2.30;;;;;;;;;;4480165;28;20036;-66
2022/04/27 06:32:10;;;;;;;4.47;2.70;;;;;;;;;;4478986;28;20030;-66
2022/04/27 06:34:20;;;;;;;4.30;2.30;;;;;;;;;;4463174;28;20407;-66
2022/04/27 06:36:31;;;;;;;3.83;2.40;;;;;;;;;;4478147;28;20095;-65
2022/04/27 06:38:44;;;;;;;3.60;2.45;;;;;;;;;;4462523;28;20618;-65
2022/04/27 06:41:01;;;;;;;5.07;2.50;;;;;;;;;;4462092;28;20069;-66
2022/04/27 06:43:22;;;;;;;3.65;2.50;;;;;;;;;;4468638;28;20022;-66
2022/04/27 06:45:36;;;;;;;4.93;2.53;;;;;;;;;;4481193;28;20042;-65
2022/04/27 06:48:05;;;;;;;3.72;2.40;;;;;;;;;;4465361;28;20735;-66
2022/04/27 06:50:34;;;;;;;3.78;2.53;;;;;;;;;;4480526;28;20085;-65
2022/04/27 06:53:04;;;;;;;3.92;2.38;;;;;;;;;;4480566;28;20042;-66
2022/04/27 06:55:33;;;;;;;4.60;2.40;;;;;;;;;;4480402;28;20873;-65
2022/04/27 06:57:46;;;;;;;5.53;2.70;;;;;;;;;;4480242;28;20085;-66
2022/04/27 06:59:58;;;;;;;6.03;2.72;;;;;;;;;;4462029;28;20037;-65
2022/04/27 07:02:10;;;;;;;5.57;2.50;;;;;;;;;;4462503;28;20045;-66
2022/04/27 07:04:20;;;;;;;4.40;2.40;;;;;;;;;;4457047;28;20035;-65
2022/04/27 07:06:31;;;;;;;3.90;2.17;;;;;;;;;;4463659;28;20042;-66
2022/04/27 07:08:43;;;;;;;3.73;2.30;;;;;;;;;;4480946;28;20966;-66
2022/04/27 07:10:53;;;;;;;3.55;2.20;;;;;;;;;;4478818;28;20519;-65
2022/04/27 07:13:05;;;;;;;4.53;2.20;;;;;;;;;;4479223;28;20038;-66
2022/04/27 07:15:15;;;;;;;4.60;2.28;;;;;;;;;;4480737;28;20030;-66
2022/04/27 07:17:26;;;;;;;3.93;2.20;;;;;;;;;;4480504;28;20034;-66
2022/04/27 07:19:37;;;;;;;3.80;2.17;;;;;;;;;;4480726;28;20030;-66
2022/04/27 07:21:47;;;;;;;4.30;2.10;;;;;;;;;;4479915;28;20098;-66
2022/04/27 07:24:02;;;;;;;4.93;2.37;;;;;;;;;;4480465;28;20758;-66
2022/04/27 07:26:12;;;;;;;3.28;2.10;;;;;;;;;;4480021;28;20038;-66
2022/04/27 07:28:22;;;;;;;3.47;2.10;;;;;;;;;;4455492;28;20046;-66
2022/04/27 07:30:33;;;;;;;5.43;2.30;;;;;;;;;;4480682;28;20096;-66
2022/04/27 07:32:45;;;;;;;3.07;1.83;;;;;;;;;;4479268;28;20282;-65
2022/04/27 07:34:56;;;;;;;3.10;1.85;;;;;;;;;;4480627;28;20132;-65
2022/04/27 07:37:06;;;;;;;3.93;2.17;;;;;;;;;;4461761;28;20828;-65
2022/04/27 07:39:17;;;;;;;3.03;2.03;;;;;;;;;;4479673;28;20046;-65
2022/04/27 07:41:27;;;;;;;4.03;2.00;;;;;;;;;;4455421;28;20098;-66
2022/04/27 07:43:38;;;;;;;4.20;2.20;;;;;;;;;;4479169;28;25058;-65
2022/04/27 07:45:48;;;;;;;3.87;2.00;;;;;;;;;;4461320;28;20055;-65
2022/04/27 07:47:58;;;;;;;2.47;1.70;;;;;;;;;;4479521;28;20125;-65
2022/04/27 07:50:10;;;;;;;3.43;2.10;;;;;;;;;;4479758;28;20026;-66
2022/04/27 07:52:21;;;;;;;4.45;2.25;;;;;;;;;;4455567;28;20035;-66
2022/04/27 07:54:31;;;;;;;2.90;2.10;;;;;;;;;;4479385;28;28650;-65
2022/04/27 07:56:42;;;;;;;3.70;2.20;;;;;;;;;;4479404;28;20623;-66
2022/04/27 07:58:52;;;;;;;3.70;2.10;;;;;;;;;;4462364;28;20105;-65
2022/04/27 08:01:03;;;;;;;4.13;2.00;;;;;;;;;;4479757;28;25972;-65
2022/04/27 08:03:13;;;;;;;3.90;2.13;;;;;;;;;;4479353;28;27161;-65
2022/04/27 08:05:24;;;;;;;3.00;1.73;;;;;;;;;;4479739;28;20337;-66
2022/04/27 08:07:48;;;;;;;4.13;1.90;;;;;;;;;;4463375;28;20101;-66
2022/04/27 08:09:58;;;;;;;3.78;2.10;;;;;;;;;;4449603;28;20039;-65
2022/04/27 08:12:09;;;;;;;3.73;1.90;;;;;;;;;;4465702;28;20038;-65
2022/04/27 08:14:19;;;;;;;2.80;1.93;;;;;;;;;;4482903;28;20101;-65
2022/04/27 08:16:30;;;;;;;3.23;1.97;;;;;;;;;;4482538;28;23229;-65
2022/04/27 08:18:41;;;;;;;3.13;1.67;;;;;;;;;;4482514;28;20143;-65
2022/04/27 08:23:20;;;;;;;2.15;1.70;;;;;;;;;;4463683;28;20494;-65
2022/04/27 08:25:31;;;;;;;2.50;1.60;;;;;;;;;;4482434;28;20034;-65
2022/04/27 08:27:41;;;;;;;2.83;1.70;;;;;;;;;;4482276;28;20077;-66
2022/04/27 08:29:52;;;;;;;3.93;2.17;;;;;;;;;;4481899;28;20031;-65
2022/04/27 08:32:03;;;;;;;3.33;1.97;;;;;;;;;;4464646;28;20450;-65
2022/04/27 08:34:17;;;;;;;;;;;;;;;;;;4481766;28;20067;-66
2022/04/27 08:36:27;;;;;;;3.00;1.80;;;;;;;;;;4463844;28;19918;-66
2022/04/27 08:38:38;;;;;;;2.77;1.70;;;;;;;;;;4448044;28;20468;-66
2022/04/27 08:40:49;;;;;;;2.72;1.83;;;;;;;;;;4464373;28;20118;-66
2022/04/27 08:43:01;;;;;;;3.23;1.97;;;;;;;;;;4481888;28;20808;-66
2022/04/27 08:45:11;;;;;;;2.72;2.05;;;;;;;;;;4458423;28;20058;-66
2022/04/27 08:47:23;;;;;;;2.73;1.73;;;;;;;;;;4482928;28;20029;-66
2022/04/27 08:49:34;;;;;;;5.20;2.38;;;;;;;;;;4465144;28;20039;-66
2022/04/27 08:51:44;;;;;;;3.55;2.03;;;;;;;;;;4482191;28;20034;-66
2022/04/27 08:53:55;;;;;;;5.23;2.13;;;;;;;;;;4457895;28;20031;-66
2022/04/27 08:56:05;;;;;;;4.83;2.00;;;;;;;;;;4465031;28;20097;-66
2022/04/27 08:58:16;;;;;;;4.50;1.97;;;;;;;;;;4481810;28;20101;-66
2022/04/27 09:00:27;;;;;;;3.80;1.90;;;;;;;;;;4480546;28;20030;-66
2022/04/27 09:02:37;;;;;;;3.20;1.90;;;;;;;;;;4457962;28;20082;-66
2022/04/27 09:05:10;;;;;;;4.80;2.20;;;;;;;;;;4482619;28;20034;-66
2022/04/27 09:07:20;;;;;;;2.60;1.65;;;;;;;;;;4482275;28;20710;-66
2022/04/27 09:09:37;;;;;;;4.80;1.90;;;;;;;;;;4482046;28;20039;-66
2022/04/27 09:11:52;;;;;;;4.43;1.90;;;;;;;;;;4458482;28;20099;-66
2022/04/27 09:14:03;;;;;;;4.43;2.13;;;;;;;;;;4481685;28;20080;-66
2022/04/27 09:16:14;;;;;;;2.17;1.50;;;;;;;;;;4464363;28;20118;-66
2022/04/27 09:21:01;;;;;;;2.85;1.80;;;;;;;;;;4466588;28;20046;-65
2022/04/27 09:23:38;;;;;;;3.88;1.67;;;;;;;;;;4464323;28;20026;-66
2022/04/27 09:25:51;;;;;;;3.17;1.77;;;;;;;;;;4464777;28;20097;-66
2022/04/27 09:28:05;;;;;;;4.28;2.10;;;;;;;;;;4463834;28;20140;-67
2022/04/27 09:30:15;;;;;;;2.72;1.60;;;;;;;;;;4481751;28;20026;-66
2022/04/27 09:32:26;;;;;;;2.70;1.67;;;;;;;;;;4480214;28;20507;-66
2022/04/27 09:34:47;;;;;;;3.63;1.77;;;;;;;;;;4464396;28;20058;-66
2022/04/27 09:37:02;;;;;;;3.10;1.90;;;;;;;;;;4458812;28;20043;-66
2022/04/27 09:39:23;;;;;;;4.68;2.25;;;;;;;;;;4482152;28;20045;-66
2022/04/27 09:41:42;;;;;;;2.70;1.70;;;;;;;;;;4482344;28;20042;-66
2022/04/27 09:43:52;;;;;;;3.67;1.80;;;;;;;;;;4481948;28;20042;-66
2022/04/27 09:46:22;;;;;;;3.67;1.90;;;;;;;;;;4481494;28;20053;-66
2022/04/27 09:48:33;;;;;;;4.18;2.05;;;;;;;;;;4481543;28;20386;-66
2022/04/27 09:50:52;;;;;;;3.43;1.97;;;;;;;;;;4481582;28;20044;-66
2022/04/27 09:53:04;;;;;;;3.65;1.98;;;;;;;;;;4481059;28;20038;-66
2022/04/27 09:55:15;;;;;;;3.58;2.10;;;;;;;;;;4463682;28;20027;-66
2022/04/27 09:57:27;;;;;;;3.00;2.10;;;;;;;;;;4481574;28;20732;-66
2022/04/27 09:59:38;;;;;;;4.47;2.10;;;;;;;;;;4481044;28;20061;-66
2022/04/27 10:01:53;;;;;;;3.83;2.37;;;;;;;;;;4462955;28;20069;-66
2022/04/27 10:04:04;;;;;;;3.38;2.20;;;;;;;;;;4480216;28;20696;-66
2022/04/27 10:06:15;;;;;;;5.03;2.58;;;;;;;;;;4457285;28;20038;-66
2022/04/27 10:08:27;;;;;;;4.18;2.30;;;;;;;;;;4480993;28;20027;-66
2022/04/27 10:10:44;;;;;;;4.25;2.22;;;;;;;;;;4459357;28;20621;-66
2022/04/27 10:12:56;;;;;;;3.83;1.98;;;;;;;;;;4481417;28;20617;-66
2022/04/27 10:15:07;;;;;;;3.60;2.10;;;;;;;;;;4481894;28;20038;-66
2022/04/27 10:17:17;;;;;;;2.78;2.00;;;;;;;;;;4481390;28;20050;-66
2022/04/27 10:19:28;;;;;;;3.73;2.50;;;;;;;;;;4443740;28;20031;-66
2022/04/27 10:21:56;;;;;;;2.80;1.90;;;;;;;;;;4481636;28;20038;-65
2022/04/27 10:24:07;;;;;;;3.83;2.30;;;;;;;;;;4481467;28;20605;-66
2022/04/27 10:26:29;;;;;;;3.00;2.00;;;;;;;;;;4456405;28;20044;-66
2022/04/27 10:28:47;;;;;;;4.32;2.50;;;;;;;;;;4481188;28;20065;-66
2022/04/27 10:31:01;;;;;;;3.55;2.17;;;;;;;;;;4462158;28;20061;-65
2022/04/27 10:33:11;;;;;;;4.00;2.08;;;;;;;;;;4463596;28;20039;-66
2022/04/27 10:35:30;;;;;;;4.17;2.50;;;;;;;;;;4457266;28;20039;-66
2022/04/27 10:37:48;;;;;;;4.65;2.25;;;;;;;;;;4480959;28;20038;-66
2022/04/27 10:40:24;;;;;;;4.97;2.95;;;;;;;;;;4481243;28;21130;-65
2022/04/27 10:42:35;;;;;;;4.80;2.83;;;;;;;;;;4462644;28;20133;-66
2022/04/27 10:44:53;;;;;;;4.30;2.60;;;;;;;;;;4480739;28;20352;-66
2022/04/27 10:47:19;;;;;;;3.58;2.67;;;;;;;;;;4480779;28;20038;-66
2022/04/27 10:49:29;;;;;;;3.80;2.40;;;;;;;;;;4480307;28;20043;-66
2022/04/27 10:52:15;;;;;;;3.57;2.17;;;;;;;;;;4464024;28;20038;-66
2022/04/27 10:54:34;;;;;;;4.25;2.47;;;;;;;;;;4417882;28;20044;-66
2022/04/27 10:56:45;;;;;;;4.82;2.58;;;;;;;;;;4467027;28;20476;-66
2022/04/27 10:58:55;;;;;;;5.57;3.07;;;;;;;;;;4461537;28;22643;-66
2022/04/27 11:01:06;;;;;;;5.53;3.10;;;;;;;;;;4462699;28;20039;-66
2022/04/27 11:03:16;;;;;;;4.32;3.00;;;;;;;;;;4481040;28;20092;-66
2022/04/27 11:05:32;;;;;;;5.33;3.50;;;;;;;;;;4480570;28;20083;-66
2022/04/27 11:07:51;;;;;;;4.63;3.30;;;;;;;;;;4480466;28;21501;-66
2022/04/27 11:10:04;;;;;;;5.65;3.13;;;;;;;;;;4480765;28;20124;-66
2022/04/27 11:12:14;;;;;;;3.95;2.90;;;;;;;;;;4480693;28;20035;-66
2022/04/27 11:14:29;;;;;;;5.13;3.30;;;;;;;;;;4480566;28;20030;-66
2022/04/27 11:16:47;;;;;;;5.03;3.30;;;;;;;;;;4480480;28;20654;-66
2022/04/27 11:18:59;;;;;;;4.82;3.30;;;;;;;;;;4462574;28;20035;-66
2022/04/27 11:21:09;;;;;;;;;;;;;;;;;;4446455;28;20130;-65
2022/04/27 11:23:21;;;;;;;6.18;3.33;;;;;;;;;;4461949;28;19918;-66
2022/04/27 11:25:35;;;;;;;4.50;2.92;;;;;;;;;;4479409;28;20042;-66
2022/04/27 11:27:45;;;;;;;4.80;2.95;;;;;;;;;;4480630;28;20038;-66
2022/04/27 11:29:57;;;;;;;5.20;3.23;;;;;;;;;;4479451;28;32140;-66
2022/04/27 11:32:08;;;;;;;4.78;2.90;;;;;;;;;;4479976;28;20030;-66
2022/04/27 11:34:23;;;;;;;4.22;3.08;;;;;;;;;;4456084;28;21255;-65
2022/04/27 11:36:34;;;;;;;4.38;2.90;;;;;;;;;;4463044;28;20047;-65
2022/04/27 11:38:45;;;;;;;4.50;2.87;;;;;;;;;;4479365;28;20051;-66
2022/04/27 11:40:56;;;;;;;4.53;3.08;;;;;;;;;;4456029;28;20039;-65
2022/04/27 11:43:06;;;;;;;6.07;3.10;;;;;;;;;;4459281;28;28469;-66
2022/04/27 11:45:19;;;;;;;4.70;3.07;;;;;;;;;;4465393;28;20039;-66
2022/04/27 11:47:31;;;;;;;4.47;2.95;;;;;;;;;;4483977;28;20632;-66
2022/04/27 11:49:53;;;;;;;5.45;3.15;;;;;;;;;;4465958;28;20507;-66
2022/04/27 11:52:03;;;;;;;;;;;;;;;;;;4460594;28;20034;-66
2022/04/27 11:54:31;;;;;;;4.85;2.90;;;;;;;;;;4464268;28;20438;-66
2022/04/27 11:56:42;;;;;;;4.22;3.13;;;;;;;;;;4483466;28;20162;-66
2022/04/27 11:59:06;;;;;;;4.53;3.10;;;;;;;;;;4482650;28;20236;-68
2022/04/27 12:01:21;;;;;;;5.35;3.20;;;;;;;;;;4469332;28;20290;-67
2022/04/27 12:03:39;;;;;;;6.97;3.75;;;;;;;;;;4483289;28;20050;-67
2022/04/27 12:05:51;;;;;;;4.15;3.08;;;;;;;;;;4482369;28;20046;-67
2022/04/27 12:08:07;;;;;;;4.35;2.97;;;;;;;;;;4483198;28;20193;-67
2022/04/27 12:10:17;;;;;;;4.47;3.22;;;;;;;;;;4482144;28;20061;-67
2022/04/27 12:12:29;;;;;;;4.10;3.07;;;;;;;;;;4481573;28;20024;-67
2022/04/27 12:14:39;;;;;;;5.25;3.05;;;;;;;;;;4481797;28;20019;-67
2022/04/27 12:16:50;;;;;;;4.50;3.30;;;;;;;;;;4458346;28;23887;-68
2022/04/27 12:19:00;;;;;;;4.87;3.17;;;;;;;;;;4464277;28;20031;-68
2022/04/27 12:21:24;;;;;;;5.67;3.10;;;;;;;;;;4482471;28;20753;-68
2022/04/27 12:23:37;;;;;;;4.40;2.83;;;;;;;;;;4464663;28;20030;-68
2022/04/27 12:25:55;;;;;;;4.15;3.00;;;;;;;;;;4481383;28;20518;-68
2022/04/27 12:28:07;;;;;;;3.47;2.42;;;;;;;;;;4447533;28;20034;-68
2022/04/27 12:30:20;;;;;;;3.55;2.70;;;;;;;;;;4481681;28;21029;-68
2022/04/27 12:32:32;;;;;;;3.22;2.70;;;;;;;;;;4481709;28;20038;-68
2022/04/27 12:37:32;;;;;;;3.65;2.72;;;;;;;;;;4443547;28;20039;-67
2022/04/27 12:39:42;;;;;;;4.50;2.97;;;;;;;;;;4465160;28;20996;-67
2022/04/27 12:42:06;;;;;;;4.27;2.43;;;;;;;;;;4463504;28;20038;-66
2022/04/27 12:44:19;;;;;;;3.30;2.55;;;;;;;;;;4481662;28;20101;-67
2022/04/27 12:46:29;;;;;;;4.47;2.92;;;;;;;;;;4481622;28;20613;-67
2022/04/27 12:48:40;;;;;;;4.17;2.70;;;;;;;;;;4463543;28;20335;-67
2022/04/27 12:50:50;;;;;;;4.87;2.80;;;;;;;;;;4481679;28;20035;-67
2022/04/27 12:53:09;;;;;;;4.30;2.83;;;;;;;;;;4480894;28;20027;-67
2022/04/27 12:55:21;;;;;;;5.80;3.13;;;;;;;;;;4463117;28;20034;-67
2022/04/27 12:57:49;;;;;;;4.57;3.08;;;;;;;;;;4481429;28;20030;-68
2022/04/27 13:00:03;;;;;;;4.10;2.88;;;;;;;;;;4464140;28;20620;-68
2022/04/27 13:02:16;;;;;;;4.05;2.60;;;;;;;;;;4463180;28;20653;-68
2022/04/27 13:04:28;;;;;;;4.03;2.85;;;;;;;;;;4481311;28;20031;-68
2022/04/27 13:06:38;;;;;;;3.22;2.60;;;;;;;;;;4463363;28;21065;-68
2022/04/27 13:08:49;;;;;;;4.37;2.73;;;;;;;;;;4480681;28;20026;-68
2022/04/27 13:13:29;;;;;;;4.20;2.90;;;;;;;;;;4464783;28;20984;-68
2022/04/27 13:15:40;;;;;;;4.77;3.20;;;;;;;;;;4481645;28;20576;-68
2022/04/27 13:17:50;;;;;;;4.03;2.73;;;;;;;;;;4480582;28;20073;-68
2022/04/27 13:20:02;;;;;;;4.67;3.00;;;;;;;;;;4480104;28;20031;-68
2022/04/27 13:22:13;;;;;;;3.88;2.90;;;;;;;;;;4462106;28;20026;-69
2022/04/27 13:24:24;;;;;;;4.38;3.10;;;;;;;;;;4479326;28;20037;-68
2022/04/27 13:26:34;;;;;;;4.33;3.00;;;;;;;;;;4482028;28;20125;-68
2022/04/27 13:28:45;;;;;;;5.13;3.13;;;;;;;;;;4480518;28;20089;-67
2022/04/27 13:30:56;;;;;;;4.80;2.83;;;;;;;;;;4480211;28;29357;-68
2022/04/27 13:33:06;;;;;;;;;;;;;;;;;;4481377;28;20031;-68
2022/04/27 13:35:17;;;;;;;4.50;2.97;;;;;;;;;;4463665;28;19906;-68
2022/04/27 13:37:27;;;;;;;5.47;2.93;;;;;;;;;;4457931;28;20023;-67
2022/04/27 13:39:38;;;;;;;4.73;3.20;;;;;;;;;;4462676;28;20039;-67
2022/04/27 13:41:48;;;;;;;4.43;2.83;;;;;;;;;;4479407;28;20042;-68
2022/04/27 13:43:59;;;;;;;4.03;3.10;;;;;;;;;;4481828;28;20425;-67
2022/04/27 13:46:09;;;;;;;5.30;3.40;;;;;;;;;;4464831;28;20038;-67
2022/04/27 13:48:20;;;;;;;3.57;2.93;;;;;;;;;;4463507;28;20626;-68
2022/04/27 13:50:30;;;;;;;4.77;3.30;;;;;;;;;;4463467;28;23396;-67
2022/04/27 13:52:41;;;;;;;4.87;3.27;;;;;;;;;;4480455;28;20058;-68
2022/04/27 13:54:51;;;;;;;4.80;3.10;;;;;;;;;;4480739;28;20027;-67
2022/04/27 13:57:02;;;;;;;4.80;3.53;;;;;;;;;;4480510;28;20028;-67